Time;durP1;ratioP1;P1;durP2;ratioP2;P2;SDS_P1;SDS_P2;PMS_P1;PMS_P2;Temp;Humidity;BMP_temperature;BMP_pressure;BME280_temperature;BME280_humidity;BME280_pressure;Samples;Min_cycle;Max_cycle;Signal;HPM_P1;HPM_P2
2023/04/11 00:00:15;;;;;;;;;;;17.10;90.00;;;;;;5096653;28;19908;-66
2023/04/11 00:02:41;;;;;;;;;;;17.10;89.50;;;;;;5096147;28;19912;-68
2023/04/11 00:05:08;;;;;;;;;;;17.30;90.00;;;;;;5096754;28;19908;-68
2023/04/11 00:07:35;;;;;;;;;;;17.40;89.60;;;;;;5096434;28;20262;-67
2023/04/11 00:10:02;;;;;;;;;;;17.50;89.80;;;;;;5098153;28;19907;-61
2023/04/11 00:12:28;;;;;;;;;;;17.50;89.80;;;;;;5097684;28;19907;-67
2023/04/11 00:14:55;;;;;;;;;;;17.60;89.90;;;;;;5096396;28;19947;-63
2023/04/11 00:17:22;;;;;;;;;;;17.70;90.10;;;;;;5096593;28;19916;-64
2023/04/11 00:19:52;;;;;;;;;;;17.70;89.70;;;;;;5097457;28;20280;-71
2023/04/11 00:22:18;;;;;;;;;;;17.80;89.50;;;;;;5099365;28;19933;-68
2023/04/11 00:24:45;;;;;;;;;;;17.80;89.60;;;;;;5090534;28;19912;-71
2023/04/11 00:27:12;;;;;;;;;;;17.80;89.70;;;;;;5081041;28;19912;-68
2023/04/11 00:29:39;;;;;;;;;;;17.80;89.50;;;;;;5079979;28;19934;-69
2023/04/11 00:32:06;;;;;;;;;;;17.90;89.90;;;;;;5081628;28;20111;-67
2023/04/11 00:34:33;;;;;;;;;;;18.00;89.80;;;;;;5080510;28;19915;-69
2023/04/11 00:37:00;;;;;;;;;;;18.10;89.90;;;;;;5080051;28;19993;-66
2023/04/11 00:39:29;;;;;;;;;;;18.20;89.70;;;;;;5079432;28;19908;-65
2023/04/11 00:42:06;;;;;;;;;;;18.40;89.50;;;;;;5079327;28;20225;-63
2023/04/11 00:44:33;;;;;;;;;;;18.40;89.50;;;;;;5080954;28;20091;-65
2023/04/11 00:47:01;;;;;;;;;;;18.50;89.40;;;;;;5080058;28;20557;-68
2023/04/11 00:49:30;;;;;;;;;;;18.60;88.70;;;;;;5079869;28;20730;-69
2023/04/11 00:51:58;;;;;;;;;;;18.70;89.70;;;;;;5079280;28;19908;-67
2023/04/11 00:54:28;;;;;;;;;;;18.70;89.60;;;;;;5079846;28;19954;-67
2023/04/11 00:56:57;;;;;;;;;;;18.90;89.90;;;;;;5079115;28;19959;-64
2023/04/11 00:59:24;;;;;;;;;;;19.00;89.70;;;;;;5061834;28;19989;-64
2023/04/11 01:01:50;;;;;;;;;;;19.10;89.90;;;;;;5078720;28;19947;-68
2023/04/11 01:04:17;;;;;;;;;;;19.30;90.00;;;;;;5080305;28;20357;-67
2023/04/11 01:06:51;;;;;;;;;;;19.40;89.40;;;;;;5078421;28;19908;-63
2023/04/11 01:09:22;;;;;;;;;;;19.40;89.40;;;;;;5079666;28;19951;-63
2023/04/11 01:11:49;;;;;;;;;;;19.50;90.00;;;;;;5078314;28;19908;-61
2023/04/11 01:14:17;;;;;;;;;;;19.60;90.00;;;;;;5080301;28;20407;-64
2023/04/11 01:16:49;;;;;;;;;;;19.60;89.50;;;;;;5078928;28;20386;-65
2023/04/11 01:19:20;;;;;;;;;;;19.80;89.10;;;;;;5079935;28;19908;-63
2023/04/11 01:21:47;;;;;;;;;;;19.90;89.10;;;;;;5079482;28;19960;-70
2023/04/11 01:24:14;;;;;;;;;;;20.00;89.50;;;;;;5079380;28;19908;-70
2023/04/11 01:26:40;;;;;;;;;;;20.10;88.80;;;;;;5079785;28;19908;-69
2023/04/11 01:29:07;;;;;;;;;;;20.20;88.90;;;;;;5079107;28;20063;-69
2023/04/11 01:31:34;;;;;;;;;;;20.40;88.80;;;;;;5078811;28;19909;-64
2023/04/11 01:34:12;;;;;;;;;;;20.50;89.20;;;;;;5078206;28;19916;-63
2023/04/11 01:36:40;;;;;;;;;;;20.80;88.90;;;;;;5078144;28;20510;-69
2023/04/11 01:39:07;;;;;;;;;;;20.90;88.00;;;;;;5078276;28;20050;-63
2023/04/11 01:41:34;;;;;;;;;;;21.10;88.30;;;;;;5078679;28;19931;-68
2023/04/11 01:44:04;;;;;;;;;;;21.30;87.30;;;;;;5079586;28;19991;-68
2023/04/11 01:46:31;;;;;;;;;;;21.30;86.70;;;;;;5079016;28;19909;-69
2023/04/11 01:49:00;;;;;;;;;;;21.40;86.50;;;;;;5079324;28;20065;-70
2023/04/11 01:51:27;;;;;;;;;;;21.60;87.30;;;;;;5077898;28;19939;-69
2023/04/11 01:53:53;;;;;;;;;;;21.90;85.80;;;;;;5078725;28;19954;-71
2023/04/11 01:56:20;;;;;;;;;;;22.30;86.30;;;;;;5078591;28;19920;-69
2023/04/11 01:58:47;;;;;;;;;;;22.70;85.00;;;;;;5079155;28;20285;-63
2023/04/11 02:01:16;;;;;;;;;;;22.70;84.20;;;;;;5077754;28;19958;-67
2023/04/11 02:03:43;;;;;;;;;;;22.70;84.20;;;;;;5078122;28;20442;-70
2023/04/11 02:06:09;;;;;;;;;;;22.60;84.20;;;;;;5078288;28;19954;-69
2023/04/11 02:08:36;;;;;;;;;;;22.50;84.40;;;;;;5078939;28;20006;-63
2023/04/11 02:11:03;;;;;;;;;;;22.50;84.80;;;;;;5079590;28;19999;-70
2023/04/11 02:13:30;;;;;;;;;;;22.60;85.30;;;;;;5077311;28;20170;-69
2023/04/11 02:15:56;;;;;;;;;;;22.60;85.00;;;;;;5078146;28;19912;-69
2023/04/11 02:18:23;;;;;;;;;;;22.50;85.70;;;;;;5077974;28;20021;-69
2023/04/11 02:20:50;;;;;;;;;;;22.40;85.50;;;;;;5078326;28;20222;-70
2023/04/11 02:23:16;;;;;;;;;;;22.40;85.80;;;;;;5077532;28;20107;-70
2023/04/11 02:25:43;;;;;;;;;;;22.60;85.00;;;;;;5077855;28;19912;-69
2023/04/11 02:28:09;;;;;;;;;;;22.80;82.70;;;;;;5078679;28;20316;-69
2023/04/11 02:30:36;;;;;;;;;;;23.00;82.80;;;;;;5078702;28;19912;-70
2023/04/11 02:33:03;;;;;;;;;;;23.40;82.60;;;;;;5077974;28;19940;-67
2023/04/11 02:35:29;;;;;;;;;;;23.70;83.00;;;;;;5076928;28;19909;-65
2023/04/11 02:37:56;;;;;;;;;;;24.00;81.10;;;;;;5078267;28;19918;-66
2023/04/11 02:40:23;;;;;;;;;;;24.50;81.20;;;;;;5077046;28;19914;-62
2023/04/11 02:42:49;;;;;;;;;;;24.80;80.00;;;;;;5077263;28;19908;-69
2023/04/11 02:45:16;;;;;;;;;;;25.50;78.60;;;;;;5077300;28;19962;-69
2023/04/11 02:47:42;;;;;;;;;;;26.20;76.20;;;;;;5078007;28;19922;-65
2023/04/11 02:50:09;;;;;;;;;;;27.10;74.80;;;;;;5078584;28;19908;-70
2023/04/11 02:52:38;;;;;;;;;;;28.00;73.70;;;;;;5076854;28;19954;-70
2023/04/11 02:55:05;;;;;;;;;;;28.90;69.90;;;;;;5077205;28;19912;-67
2023/04/11 02:57:31;;;;;;;;;;;29.60;68.30;;;;;;5076502;28;20612;-62
2023/04/11 02:59:58;;;;;;;;;;;30.20;66.70;;;;;;5077670;28;20360;-69
2023/04/11 03:02:24;;;;;;;;;;;30.80;67.10;;;;;;5076954;28;19908;-71
2023/04/11 03:04:51;;;;;;;;;;;31.10;63.80;;;;;;5076709;28;19974;-68
2023/04/11 03:07:18;;;;;;;;;;;31.60;64.20;;;;;;5077422;28;20007;-66
2023/04/11 03:09:44;;;;;;;;;;;32.40;63.00;;;;;;5077620;28;19908;-69
2023/04/11 03:12:11;;;;;;;;;;;33.10;61.40;;;;;;5077529;28;20595;-71
2023/04/11 03:14:37;;;;;;;;;;;33.40;60.60;;;;;;5075805;28;19908;-66
2023/04/11 03:17:04;;;;;;;;;;;33.60;59.20;;;;;;5077171;28;20095;-65
2023/04/11 03:19:31;;;;;;;;;;;32.90;60.10;;;;;;5076507;28;20418;-66
2023/04/11 03:21:57;;;;;;;;;;;33.30;59.60;;;;;;5076890;28;20499;-71
2023/04/11 03:24:24;;;;;;;;;;;33.20;60.00;;;;;;5075758;28;19942;-68
2023/04/11 03:26:51;;;;;;;;;;;33.90;60.20;;;;;;5076818;28;20066;-69
2023/04/11 03:29:17;;;;;;;;;;;34.20;58.50;;;;;;5077797;28;19904;-68
2023/04/11 03:31:44;;;;;;;;;;;34.50;58.10;;;;;;5076690;28;19916;-69
2023/04/11 03:34:11;;;;;;;;;;;34.30;58.40;;;;;;5076614;28;20176;-70
2023/04/11 03:36:37;;;;;;;;;;;34.30;58.90;;;;;;5076282;28;20050;-62
2023/04/11 03:39:04;;;;;;;;;;;34.70;58.00;;;;;;5077107;28;19912;-71
2023/04/11 03:41:31;;;;;;;;;;;34.70;58.20;;;;;;5076362;28;19924;-70
2023/04/11 03:43:58;;;;;;;;;;;34.60;57.50;;;;;;5076133;28;19976;-67
2023/04/11 03:46:24;;;;;;;;;;;34.80;58.00;;;;;;5076864;28;19953;-70
2023/04/11 03:48:51;;;;;;;;;;;35.50;57.40;;;;;;5077125;28;19908;-70
2023/04/11 03:51:18;;;;;;;;;;;35.30;56.30;;;;;;5059354;28;19931;-67
2023/04/11 03:53:44;;;;;;;;;;;35.30;56.60;;;;;;5075394;28;19908;-70
2023/04/11 03:56:11;;;;;;;;;;;35.20;56.90;;;;;;5076736;28;19927;-63
2023/04/11 03:58:38;;;;;;;;;;;35.50;57.10;;;;;;5075530;28;19919;-67
2023/04/11 04:01:05;;;;;;;;;;;35.20;56.60;;;;;;5076786;28;20150;-67
2023/04/11 04:03:31;;;;;;;;;;;35.80;56.40;;;;;;5075798;28;19914;-69
2023/04/11 04:05:58;;;;;;;;;;;36.00;56.10;;;;;;5076162;28;20276;-65
2023/04/11 04:08:24;;;;;;;;;;;35.30;56.40;;;;;;5077046;28;20356;-69
2023/04/11 04:10:51;;;;;;;;;;;34.70;57.00;;;;;;5076191;28;19908;-67
2023/04/11 04:13:18;;;;;;;;;;;33.90;58.00;;;;;;5076357;28;19908;-68
2023/04/11 04:15:44;;;;;;;;;;;33.20;58.90;;;;;;5075618;28;19908;-70
2023/04/11 04:18:11;;;;;;;;;;;33.90;58.60;;;;;;5076570;28;19989;-66
2023/04/11 04:20:38;;;;;;;;;;;34.40;58.90;;;;;;5076023;28;19912;-67
2023/04/11 04:23:04;;;;;;;;;;;35.00;58.10;;;;;;5076004;28;19919;-67
2023/04/11 04:25:31;;;;;;;;;;;35.30;57.20;;;;;;5076336;28;19908;-65
2023/04/11 04:27:59;;;;;;;;;;;35.40;57.30;;;;;;5076859;28;19955;-68
2023/04/11 04:30:27;;;;;;;;;;;36.30;56.70;;;;;;5076682;28;19961;-65
2023/04/11 04:33:00;;;;;;;;;;;35.70;56.00;;;;;;5076053;28;19908;-69
2023/04/11 04:35:26;;;;;;;;;;;33.90;57.30;;;;;;5077016;28;20008;-63
2023/04/11 04:37:53;;;;;;;;;;;31.90;59.80;;;;;;5075753;28;20232;-69
2023/04/11 04:40:21;;;;;;;;;;;30.20;62.10;;;;;;5075853;28;20537;-69
2023/04/11 04:42:57;;;;;;;;;;;28.80;64.00;;;;;;5076200;28;20581;-67
2023/04/11 04:45:24;;;;;;;;;;;27.60;67.00;;;;;;5076294;28;20401;-70
2023/04/11 04:47:51;;;;;;;;;;;26.60;68.70;;;;;;5075193;28;20001;-68
2023/04/11 04:50:20;;;;;;;;;;;26.20;70.90;;;;;;5076170;28;20490;-67
2023/04/11 04:52:46;;;;;;;;;;;25.80;71.30;;;;;;5075975;28;20344;-71
2023/04/11 04:55:13;;;;;;;;;;;25.50;71.90;;;;;;5075972;28;20186;-70
2023/04/11 04:57:41;;;;;;;;;;;25.20;73.20;;;;;;5075028;28;19946;-70
2023/04/11 05:00:10;;;;;;;;;;;25.10;73.80;;;;;;5075450;28;20073;-68
2023/04/11 05:02:37;;;;;;;;;;;24.90;73.70;;;;;;5075828;28;19908;-69
2023/04/11 05:05:03;;;;;;;;;;;24.70;73.60;;;;;;5076666;28;20340;-64
2023/04/11 05:07:30;;;;;;;;;;;24.50;73.90;;;;;;5076204;28;19915;-67
2023/04/11 05:09:57;;;;;;;;;;;24.40;74.40;;;;;;5077685;28;19908;-60
2023/04/11 05:12:25;;;;;;;;;;;24.10;75.20;;;;;;5079487;28;19908;-63
2023/04/11 05:14:54;;;;;;;;;;;23.90;75.50;;;;;;5078812;28;20372;-63
2023/04/11 05:17:20;;;;;;;;;;;23.70;75.40;;;;;;5080070;28;19923;-70
2023/04/11 05:19:47;;;;;;;;;;;23.70;76.60;;;;;;5078873;28;19915;-69
2023/04/11 05:22:14;;;;;;;;;;;23.70;76.90;;;;;;5079146;28;19923;-66
2023/04/11 05:24:40;;;;;;;;;;;23.90;77.30;;;;;;5079114;28;19908;-62
2023/04/11 05:27:07;;;;;;;;;;;23.80;77.30;;;;;;5079160;28;20003;-69
2023/04/11 05:29:34;;;;;;;;;;;23.90;76.80;;;;;;5079422;28;19931;-70
2023/04/11 05:32:00;;;;;;;;;;;23.70;77.80;;;;;;5078228;28;20181;-71
2023/04/11 05:34:30;;;;;;;;;;;23.60;77.40;;;;;;5079333;28;19908;-65
2023/04/11 05:36:57;;;;;;;;;;;23.30;78.00;;;;;;5078748;28;20225;-69
2023/04/11 05:39:23;;;;;;;;;;;23.20;77.10;;;;;;5078172;28;19912;-64
2023/04/11 05:41:50;;;;;;;;;;;23.00;77.40;;;;;;5078466;28;20469;-69
2023/04/11 05:44:17;;;;;;;;;;;22.80;77.60;;;;;;5078253;28;19932;-60
2023/04/11 05:46:43;;;;;;;;;;;22.70;77.90;;;;;;5079052;28;19912;-70
2023/04/11 05:49:10;;;;;;;;;;;22.50;78.00;;;;;;5079688;28;19958;-69
2023/04/11 05:51:37;;;;;;;;;;;22.40;78.80;;;;;;5078554;28;20365;-67
2023/04/11 05:54:03;;;;;;;;;;;22.40;80.10;;;;;;5078450;28;20110;-62
2023/04/11 05:56:30;;;;;;;;;;;22.30;79.60;;;;;;5077954;28;20603;-71
2023/04/11 05:58:56;;;;;;;;;;;22.10;79.60;;;;;;5078288;28;19961;-66
2023/04/11 06:01:25;;;;;;;;;;;22.10;80.10;;;;;;5078419;28;20523;-71
2023/04/11 06:03:51;;;;;;;;;;;22.00;80.10;;;;;;5077916;28;20064;-61
2023/04/11 06:06:18;;;;;;;;;;;21.90;80.70;;;;;;5078472;28;19915;-65
2023/04/11 06:08:48;;;;;;;;;;;21.90;80.90;;;;;;5060460;28;20014;-63
2023/04/11 06:11:14;;;;;;;;;;;21.80;81.70;;;;;;5078426;28;19912;-61
2023/04/11 06:13:41;;;;;;;;;;;21.70;82.60;;;;;;5078766;28;20288;-64
2023/04/11 06:16:08;;;;;;;;;;;21.60;83.50;;;;;;5078346;28;19919;-61
2023/04/11 06:18:34;;;;;;;;;;;21.60;84.20;;;;;;5077384;28;20071;-71
2023/04/11 06:21:01;;;;;;;;;;;21.60;84.80;;;;;;5077678;28;19912;-68
2023/04/11 06:23:28;;;;;;;;;;;21.50;85.20;;;;;;5077808;28;19908;-67
2023/04/11 06:25:54;;;;;;;;;;;21.50;85.20;;;;;;5077332;28;19904;-71
2023/04/11 06:28:21;;;;;;;;;;;21.50;85.70;;;;;;5078102;28;19908;-63
2023/04/11 06:30:47;;;;;;;;;;;21.50;86.30;;;;;;5078660;28;20002;-68
2023/04/11 06:33:14;;;;;;;;;;;21.40;86.00;;;;;;5079016;28;20065;-59
2023/04/11 06:35:41;;;;;;;;;;;21.40;86.60;;;;;;5077263;28;20288;-60
2023/04/11 06:38:07;;;;;;;;;;;21.50;87.10;;;;;;5077517;28;19960;-61
2023/04/11 06:40:34;;;;;;;;;;;21.30;86.70;;;;;;5076923;28;19919;-64
2023/04/11 06:43:02;;;;;;;;;;;21.40;86.50;;;;;;5077520;28;19920;-60
2023/04/11 06:45:28;;;;;;;;;;;21.40;85.90;;;;;;5077713;28;19955;-61
2023/04/11 06:47:55;;;;;;;;;;;21.40;85.30;;;;;;5077673;28;20209;-67
2023/04/11 06:50:22;;;;;;;;;;;21.50;85.30;;;;;;5078576;28;19931;-62
2023/04/11 06:52:48;;;;;;;;;;;22.00;82.80;;;;;;5078109;28;19915;-70
2023/04/11 06:55:15;;;;;;;;;;;22.30;80.80;;;;;;5077776;28;20071;-70
2023/04/11 06:57:42;;;;;;;;;;;22.30;79.80;;;;;;5076538;28;20166;-72
2023/04/11 07:00:13;;;;;;;;;;;22.20;80.00;;;;;;5077172;28;19953;-71
2023/04/11 07:02:40;;;;;;;;;;;22.10;80.10;;;;;;5076879;28;20368;-71
2023/04/11 07:05:08;;;;;;;;;;;22.00;80.70;;;;;;5077387;28;19908;-70
2023/04/11 07:07:35;;;;;;;;;;;21.80;81.10;;;;;;5076658;28;19909;-69
2023/04/11 07:10:01;;;;;;;;;;;21.60;80.70;;;;;;5076513;28;20351;-70
2023/04/11 07:12:28;;;;;;;;;;;21.50;81.20;;;;;;5077605;28;20049;-64
2023/04/11 07:14:54;;;;;;;;;;;21.20;82.00;;;;;;5077967;28;20356;-69
2023/04/11 07:17:21;;;;;;;;;;;21.10;82.60;;;;;;5077426;28;20180;-61
2023/04/11 07:19:48;;;;;;;;;;;20.90;82.80;;;;;;5076380;28;20367;-67
2023/04/11 07:22:15;;;;;;;;;;;20.80;83.20;;;;;;5076809;28;19912;-70
2023/04/11 07:24:42;;;;;;;;;;;20.70;83.40;;;;;;5076640;28;19908;-68
2023/04/11 07:27:09;;;;;;;;;;;20.50;84.00;;;;;;5076545;28;19914;-71
2023/04/11 07:29:35;;;;;;;;;;;20.40;85.10;;;;;;5076570;28;19930;-71
2023/04/11 07:32:02;;;;;;;;;;;20.30;85.90;;;;;;5076103;28;20076;-71
2023/04/11 07:34:28;;;;;;;;;;;20.30;87.00;;;;;;5077516;28;19908;-63
2023/04/11 07:36:59;;;;;;;;;;;20.10;87.80;;;;;;5077469;28;20364;-62
2023/04/11 07:39:26;;;;;;;;;;;20.00;88.50;;;;;;5077529;28;20292;-63
2023/04/11 07:41:53;;;;;;;;;;;20.00;89.20;;;;;;5076886;28;19924;-69
2023/04/11 07:44:20;;;;;;;;;;;19.90;90.00;;;;;;5075834;28;19961;-63
2023/04/11 07:46:47;;;;;;;;;;;19.90;90.20;;;;;;5076474;28;19908;-63
2023/04/11 07:49:13;;;;;;;;;;;19.80;90.40;;;;;;5075852;28;19909;-69
2023/04/11 07:51:40;;;;;;;;;;;19.80;90.80;;;;;;5076367;28;19908;-70
2023/04/11 07:54:08;;;;;;;;;;;19.70;91.10;;;;;;5076040;28;19908;-63
2023/04/11 07:56:35;;;;;;;;;;;19.60;91.40;;;;;;5076748;28;19955;-70
2023/04/11 07:59:02;;;;;;;;;;;19.60;91.70;;;;;;5077502;28;20296;-67
2023/04/11 08:01:28;;;;;;;;;;;19.50;91.90;;;;;;5076695;28;20383;-70
2023/04/11 08:03:55;;;;;;;;;;;19.50;92.10;;;;;;5076447;28;19909;-71
2023/04/11 08:06:22;;;;;;;;;;;19.50;92.30;;;;;;5075832;28;19909;-64
2023/04/11 08:08:50;;;;;;;;;;;19.40;92.50;;;;;;5076040;28;19912;-69
2023/04/11 08:11:16;;;;;;;;;;;19.30;92.60;;;;;;5076148;28;19912;-65
2023/04/11 08:13:43;;;;;;;;;;;19.30;92.90;;;;;;5076006;28;20151;-71
2023/04/11 08:16:10;;;;;;;;;;;19.30;93.10;;;;;;5076037;28;20075;-62
2023/04/11 08:18:40;;;;;;;;;;;19.30;93.40;;;;;;5076570;28;20091;-65
2023/04/11 08:21:09;;;;;;;;;;;19.20;93.50;;;;;;5076471;28;20356;-66
2023/04/11 08:23:36;;;;;;;;;;;19.20;93.80;;;;;;5076795;28;19978;-69
2023/04/11 08:26:02;;;;;;;;;;;19.10;94.00;;;;;;5077655;28;20392;-70
2023/04/11 08:28:29;;;;;;;;;;;19.10;94.20;;;;;;5075958;28;20277;-64
2023/04/11 08:30:57;;;;;;;;;;;19.00;94.40;;;;;;5075658;28;19919;-71
2023/04/11 08:33:27;;;;;;;;;;;19.00;94.50;;;;;;5075525;28;19912;-70
2023/04/11 08:35:53;;;;;;;;;;;19.00;94.70;;;;;;5075977;28;19961;-69
2023/04/11 08:38:20;;;;;;;;;;;18.90;95.10;;;;;;5075940;28;19912;-70
2023/04/11 08:40:47;;;;;;;;;;;18.80;95.20;;;;;;5075549;28;20365;-71
2023/04/11 08:43:13;;;;;;;;;;;18.90;95.30;;;;;;5075874;28;20337;-61
2023/04/11 08:45:40;;;;;;;;;;;18.80;95.60;;;;;;5080805;28;19915;-71
2023/04/11 08:48:08;;;;;;;;;;;18.70;95.50;;;;;;5080343;28;19908;-68
2023/04/11 08:50:35;;;;;;;;;;;18.70;95.80;;;;;;5080314;28;19908;-72
2023/04/11 08:53:02;;;;;;;;;;;18.70;96.20;;;;;;5080304;28;19908;-71
2023/04/11 08:55:29;;;;;;;;;;;18.60;96.50;;;;;;5079288;28;19908;-71
2023/04/11 08:57:58;;;;;;;;;;;18.60;96.70;;;;;;5079399;28;20330;-66
2023/04/11 09:00:27;;;;;;;;;;;18.50;97.00;;;;;;5079153;28;19915;-61
2023/04/11 09:02:54;;;;;;;;;;;18.50;97.30;;;;;;5079526;28;19908;-65
2023/04/11 09:05:24;;;;;;;;;;;18.50;97.40;;;;;;5078912;28;19954;-71
2023/04/11 09:07:51;;;;;;;;;;;18.40;97.70;;;;;;5079160;28;19948;-71
2023/04/11 09:10:21;;;;;;;;;;;18.40;98.10;;;;;;5078982;28;20281;-70
2023/04/11 09:12:48;;;;;;;;;;;18.30;98.20;;;;;;5079104;28;19908;-70
2023/04/11 09:15:18;;;;;;;;;;;18.20;98.50;;;;;;5080364;28;19970;-63
2023/04/11 09:17:45;;;;;;;;;;;18.20;98.70;;;;;;5080069;28;19983;-62
2023/04/11 09:20:16;;;;;;;;;;;18.20;98.60;;;;;;5080204;28;20257;-62
2023/04/11 09:22:43;;;;;;;;;;;18.10;98.40;;;;;;5079670;28;19957;-61
2023/04/11 09:25:09;;;;;;;;;;;18.10;98.50;;;;;;5079284;28;20011;-63
2023/04/11 09:27:36;;;;;;;;;;;18.10;98.50;;;;;;5078530;28;20133;-70
2023/04/11 09:30:04;;;;;;;;;;;18.10;98.50;;;;;;5079023;28;20284;-70
2023/04/11 09:32:33;;;;;;;;;;;18.10;98.50;;;;;;5078660;28;19908;-60
2023/04/11 09:35:17;;;;;;;;;;;18.10;98.80;;;;;;5078890;28;20011;-69
2023/04/11 09:37:47;;;;;;;;;;;18.10;98.80;;;;;;5079279;28;20272;-69
2023/04/11 09:40:15;;;;;;;;;;;18.10;99.00;;;;;;5061519;28;19959;-71
2023/04/11 09:42:42;;;;;;;;;;;18.10;99.10;;;;;;5078543;28;20179;-67
2023/04/11 09:45:19;;;;;;;;;;;18.10;99.30;;;;;;5078362;28;20319;-63
2023/04/11 09:47:46;;;;;;;;;;;18.00;99.20;;;;;;5079110;28;19908;-69
2023/04/11 09:50:13;;;;;;;;;;;18.00;99.50;;;;;;5078288;28;20091;-66
2023/04/11 09:52:41;;;;;;;;;;;18.00;99.70;;;;;;5077914;28;20496;-69
2023/04/11 09:55:28;;;;;;;;;;;17.90;99.70;;;;;;5077612;28;19908;-68
2023/04/11 09:57:55;;;;;;;;;;;18.00;99.90;;;;;;5077890;28;20007;-68
2023/04/11 10:00:23;;;;;;;;;;;17.90;99.90;;;;;;5079141;28;20323;-69
2023/04/11 10:02:54;;;;;;;;;;;17.90;99.90;;;;;;5079325;28;19909;-69
2023/04/11 10:05:27;;;;;;;;;;;17.90;99.90;;;;;;5079359;28;19915;-66
2023/04/11 10:07:54;;;;;;;;;;;17.90;99.90;;;;;;5079180;28;20361;-60
2023/04/11 10:10:22;;;;;;;;;;;17.90;99.90;;;;;;5079015;28;19916;-62
2023/04/11 10:12:49;;;;;;;;;;;17.80;99.90;;;;;;5078344;28;20096;-70
2023/04/11 10:15:16;;;;;;;;;;;17.80;99.90;;;;;;5078111;28;20361;-69
2023/04/11 10:18:03;;;;;;;;;;;17.70;99.90;;;;;;5077573;28;19943;-61
2023/04/11 10:20:36;;;;;;;;;;;17.70;99.90;;;;;;5067192;28;20022;-69
2023/04/11 10:23:03;;;;;;;;;;;17.70;99.90;;;;;;5077829;28;19930;-69
2023/04/11 10:25:31;;;;;;;;;;;17.70;99.90;;;;;;5077855;28;20346;-67
2023/04/11 10:28:03;;;;;;;;;;;17.70;99.90;;;;;;5078246;28;19999;-68
2023/04/11 10:30:39;;;;;;;;;;;17.70;99.90;;;;;;5077919;28;19977;-62
2023/04/11 10:33:13;;;;;;;;;;;17.70;99.90;;;;;;5077795;28;19952;-69
2023/04/11 10:36:11;;;;;;;;;;;17.70;99.90;;;;;;5077350;28;20380;-62
2023/04/11 10:38:46;;;;;;;;;;;17.70;99.90;;;;;;5042944;28;19916;-71
2023/04/11 10:41:18;;;;;;;;;;;17.70;99.90;;;;;;5077300;28;19923;-65
2023/04/11 10:43:45;;;;;;;;;;;17.70;99.90;;;;;;5076971;28;19908;-71
2023/04/11 10:46:18;;;;;;;;;;;17.70;99.90;;;;;;5077679;28;19999;-70
2023/04/11 10:48:57;;;;;;;;;;;17.70;99.90;;;;;;5077062;28;19909;-68
2023/04/11 10:51:27;;;;;;;;;;;17.70;99.90;;;;;;5077491;28;19912;-61
2023/04/11 10:53:57;;;;;;;;;;;17.70;99.90;;;;;;5077751;28;19912;-60
2023/04/11 10:56:39;;;;;;;;;;;17.70;99.90;;;;;;5059522;28;19912;-63
2023/04/11 10:59:08;;;;;;;;;;;17.70;99.90;;;;;;5076904;28;20126;-62
2023/04/11 11:01:36;;;;;;;;;;;17.70;99.90;;;;;;5077100;28;19908;-61
2023/04/11 11:04:03;;;;;;;;;;;17.70;99.90;;;;;;5078254;28;20312;-69
2023/04/11 11:06:33;;;;;;;;;;;17.60;99.90;;;;;;5078317;28;19908;-63
2023/04/11 11:09:00;;;;;;;;;;;17.70;99.90;;;;;;5078299;28;19962;-68
2023/04/11 11:11:27;;;;;;;;;;;17.60;99.90;;;;;;5077741;28;20370;-69
2023/04/11 11:13:57;;;;;;;;;;;17.50;99.90;;;;;;5076247;28;20125;-69
2023/04/11 11:16:24;;;;;;;;;;;17.50;99.90;;;;;;5076248;28;20144;-70
2023/04/11 11:18:53;;;;;;;;;;;17.60;99.90;;;;;;5076362;28;20048;-68
2023/04/11 11:21:22;;;;;;;;;;;17.50;99.90;;;;;;5076743;28;20261;-64
2023/04/11 11:23:53;;;;;;;;;;;17.40;99.90;;;;;;5076511;28;19983;-63
2023/04/11 11:26:19;;;;;;;;;;;17.40;99.90;;;;;;5076743;28;19911;-61
2023/04/11 11:28:47;;;;;;;;;;;17.40;99.90;;;;;;5076206;28;19947;-62
2023/04/11 11:31:14;;;;;;;;;;;17.40;99.90;;;;;;5076513;28;19919;-67
2023/04/11 11:33:41;;;;;;;;;;;17.40;99.90;;;;;;5076634;28;20387;-62
2023/04/11 11:36:08;;;;;;;;;;;17.30;99.90;;;;;;5076822;28;20003;-63
2023/04/11 11:38:35;;;;;;;;;;;17.30;99.90;;;;;;5077349;28;20364;-63
2023/04/11 11:41:02;;;;;;;;;;;17.20;99.90;;;;;;5076420;28;19923;-70
2023/04/11 11:43:28;;;;;;;;;;;17.20;99.90;;;;;;5076532;28;20194;-70
2023/04/11 11:46:08;;;;;;;;;;;17.20;99.90;;;;;;5075810;28;20151;-62
2023/04/11 11:48:35;;;;;;;;;;;17.20;99.90;;;;;;5077392;28;19908;-72
2023/04/11 11:51:02;;;;;;;;;;;17.10;99.90;;;;;;5076130;28;19956;-68
2023/04/11 11:53:28;;;;;;;;;;;17.00;99.90;;;;;;5075996;28;20107;-69
2023/04/11 11:55:55;;;;;;;;;;;16.90;99.90;;;;;;5075811;28;20280;-63
2023/04/11 11:58:22;;;;;;;;;;;16.90;99.90;;;;;;5076217;28;19912;-70
2023/04/11 12:00:50;;;;;;;;;;;16.90;99.90;;;;;;5075757;28;19908;-60
2023/04/11 12:03:17;;;;;;;;;;;16.80;99.90;;;;;;5076301;28;20083;-71
2023/04/11 12:05:46;;;;;;;;;;;16.80;99.90;;;;;;5076553;28;19912;-65
2023/04/11 12:08:13;;;;;;;;;;;16.80;99.90;;;;;;5076582;28;19908;-63
2023/04/11 12:10:40;;;;;;;;;;;16.70;99.90;;;;;;5077028;28;19908;-61
2023/04/11 12:13:14;;;;;;;;;;;16.70;99.90;;;;;;5076060;28;19931;-69
2023/04/11 12:15:44;;;;;;;;;;;16.70;99.90;;;;;;5076837;28;19954;-61
2023/04/11 12:18:11;;;;;;;;;;;16.70;99.90;;;;;;5076535;28;20635;-67
2023/04/11 12:20:38;;;;;;;;;;;16.70;99.90;;;;;;5080967;28;19947;-66
2023/04/11 12:23:04;;;;;;;;;;;16.70;99.90;;;;;;5079804;28;20172;-68
2023/04/11 12:25:31;;;;;;;;;;;16.60;99.90;;;;;;5080208;28;19915;-60
2023/04/11 12:27:57;;;;;;;;;;;16.60;99.90;;;;;;5079922;28;20394;-60
2023/04/11 12:30:24;;;;;;;;;;;16.60;99.90;;;;;;5081190;28;19916;-59
2023/04/11 12:32:51;;;;;;;;;;;16.60;99.90;;;;;;5080439;28;19985;-61
2023/04/11 12:35:18;;;;;;;;;;;16.60;99.90;;;;;;5097971;28;20390;-69
2023/04/11 12:37:45;;;;;;;;;;;16.60;99.90;;;;;;5089891;28;19924;-61
2023/04/11 12:40:12;;;;;;;;;;;16.50;99.90;;;;;;5087606;28;20011;-68
2023/04/11 12:42:39;;;;;;;;;;;16.50;99.90;;;;;;5084852;28;20392;-66
2023/04/11 12:45:06;;;;;;;;;;;16.50;99.90;;;;;;5078500;28;20162;-69
2023/04/11 12:47:33;;;;;;;;;;;16.50;99.90;;;;;;5079109;28;19987;-62
2023/04/11 12:49:59;;;;;;;;;;;16.60;99.90;;;;;;5078737;28;19908;-71
2023/04/11 12:52:27;;;;;;;;;;;16.50;99.90;;;;;;5060505;28;20349;-67
2023/04/11 12:54:53;;;;;;;;;;;16.50;99.90;;;;;;5079058;28;20217;-60
2023/04/11 12:57:20;;;;;;;;;;;16.50;99.90;;;;;;5079970;28;19924;-69
2023/04/11 12:59:46;;;;;;;;;;;16.40;99.90;;;;;;5080280;28;19915;-70
2023/04/11 13:02:13;;;;;;;;;;;16.40;99.90;;;;;;5079683;28;19915;-70
2023/04/11 13:04:40;;;;;;;;;;;16.40;99.90;;;;;;5079538;28;19915;-68
2023/04/11 13:07:08;;;;;;;;;;;16.40;99.90;;;;;;5079767;28;19908;-70
2023/04/11 13:09:35;;;;;;;;;;;16.30;99.90;;;;;;5079262;28;19908;-69
2023/04/11 13:12:02;;;;;;;;;;;16.30;99.90;;;;;;5078986;28;19908;-67
2023/04/11 13:14:29;;;;;;;;;;;16.20;99.90;;;;;;5079208;28;20284;-60
2023/04/11 13:16:55;;;;;;;;;;;16.30;99.90;;;;;;5079959;28;19916;-64
2023/04/11 13:19:22;;;;;;;;;;;16.20;99.90;;;;;;5080445;28;19908;-61
2023/04/11 13:21:49;;;;;;;;;;;16.20;99.90;;;;;;5079918;28;19912;-71
2023/04/11 13:24:16;;;;;;;;;;;16.20;99.90;;;;;;5079024;28;19912;-67
2023/04/11 13:26:43;;;;;;;;;;;16.20;99.90;;;;;;5078875;28;20345;-71
2023/04/11 13:29:10;;;;;;;;;;;16.20;99.90;;;;;;5078729;28;19912;-68
2023/04/11 13:31:37;;;;;;;;;;;16.10;99.90;;;;;;5077346;28;19912;-63
2023/04/11 13:34:03;;;;;;;;;;;16.10;99.90;;;;;;5078570;28;19912;-71
2023/04/11 13:36:31;;;;;;;;;;;16.00;99.90;;;;;;5079032;28;19926;-62
2023/04/11 13:38:57;;;;;;;;;;;16.00;99.90;;;;;;5080445;28;20312;-65
2023/04/11 13:41:24;;;;;;;;;;;16.00;99.90;;;;;;5079782;28;20289;-63
2023/04/11 13:43:51;;;;;;;;;;;16.00;99.90;;;;;;5079758;28;19965;-61
2023/04/11 13:46:18;;;;;;;;;;;15.90;99.90;;;;;;5078022;28;20357;-60
2023/04/11 13:48:45;;;;;;;;;;;15.90;99.90;;;;;;5078813;28;20075;-61
2023/04/11 13:51:12;;;;;;;;;;;15.90;99.90;;;;;;5078162;28;20042;-69
2023/04/11 13:53:38;;;;;;;;;;;15.90;99.90;;;;;;5078234;28;19915;-69
2023/04/11 13:56:06;;;;;;;;;;;15.80;99.90;;;;;;5077766;28;20337;-65
2023/04/11 13:58:37;;;;;;;;;;;15.80;99.90;;;;;;5079056;28;19909;-65
2023/04/11 14:01:03;;;;;;;;;;;15.80;99.90;;;;;;5078291;28;19908;-61
2023/04/11 14:03:32;;;;;;;;;;;15.80;99.90;;;;;;5079345;28;19915;-70
2023/04/11 14:06:02;;;;;;;;;;;15.70;99.90;;;;;;5079648;28;20004;-64
2023/04/11 14:08:28;;;;;;;;;;;15.70;99.90;;;;;;5079068;28;19915;-62
2023/04/11 14:10:55;;;;;;;;;;;15.60;99.90;;;;;;5078801;28;19914;-71
2023/04/11 14:13:22;;;;;;;;;;;15.60;99.90;;;;;;5078169;28;19915;-66
2023/04/11 14:15:49;;;;;;;;;;;15.70;99.90;;;;;;5078106;28;19908;-71
2023/04/11 14:18:15;;;;;;;;;;;15.60;99.90;;;;;;5077479;28;19970;-70